Estación de Los Angeles

Ultimos registro cada 15 minutos 29
Estación Fecha / Hora Temperatura Humedad Lluvia Velocidad Dirección Radiación Presion
29 Los Angeles 08-05-2026 07:00 7,8 96,6 0,2 0,3 3 0,6 1010,7
28 Los Angeles 08-05-2026 06:45 7,9 96,6 0 0,3 357 0,6 1010,7
27 Los Angeles 08-05-2026 06:30 7,9 96,7 0 0,7 28 0,6 1010,7
26 Los Angeles 08-05-2026 06:15 7,9 96,7 0 0,3 8 0,6 1010,7
25 Los Angeles 08-05-2026 06:00 7,9 96,8 0 0,7 24 0,6 1010,9
24 Los Angeles 08-05-2026 05:45 7,9 96,5 0,2 0,3 14 0,6 1011,1
23 Los Angeles 08-05-2026 05:30 8 96,3 0,6 0,3 352 0,6 1011,4
22 Los Angeles 08-05-2026 05:15 8,1 96,3 0 0,3 345 0,6 1011,2
21 Los Angeles 08-05-2026 05:00 8 96,3 0 0,7 14 0,6 1011,1
20 Los Angeles 08-05-2026 04:45 8,1 96,2 0 0,3 27 0,6 1011,2
19 Los Angeles 08-05-2026 04:30 8 95,8 0,6 0,3 28 0,6 1011,3
18 Los Angeles 08-05-2026 04:15 8,1 95,4 0 0,3 37 0,6 1011,8
17 Los Angeles 08-05-2026 04:00 8,1 95,2 0 0,7 17 0,6 1011,6
16 Los Angeles 08-05-2026 03:45 8,2 94,4 0,2 0,7 8 0,6 1011,7
15 Los Angeles 08-05-2026 03:30 8,5 93 0 0,7 4 0,6 1012,4
14 Los Angeles 08-05-2026 03:15 8,6 92,4 0 0,3 354 0,6 1012,3
13 Los Angeles 08-05-2026 03:00 8,5 92,9 0 0,3 10 0,6 1012,4
12 Los Angeles 08-05-2026 02:45 8,5 92,9 0 0,3 334 0,6 1012,2
11 Los Angeles 08-05-2026 02:30 8,7 92,2 0 0,3 320 0,6 1012,6
10 Los Angeles 08-05-2026 02:15 8,7 92,2 0 0,3 333 0,6 1012,9
9 Los Angeles 08-05-2026 02:00 8,6 92,2 0 0,3 323 0,6 1012,9
8 Los Angeles 08-05-2026 01:45 8,6 92,2 0 0 338 0,6 1012,9
7 Los Angeles 08-05-2026 01:30 8,5 91,9 0 0 4 0,6 1013,2
6 Los Angeles 08-05-2026 01:15 8,6 91,7 0 0 4 0,6 1013,8
5 Los Angeles 08-05-2026 01:00 8,5 91,9 0 0 10 0,6 1013,9
4 Los Angeles 08-05-2026 00:45 8,5 91,4 0 0 3 0,6 1013,7
3 Los Angeles 08-05-2026 00:30 8,6 91,3 0 0 3 0,6 1014,1
2 Los Angeles 08-05-2026 00:15 8,6 91,3 0 0 336 0,6 1014,2
1 Los Angeles 08-05-2026 00:00 8,6 91,2 0 0,3 321 0,6 1014,5